KPTN/PTN METAR and TAF weather

Enter ICAO airport designator
Station Type Date Time Source
KPTN METAR 2021/03/06 01:56 UTC NOAA

KPTN 060156Z AUTO 00000KT 10SM OVC048 18/13 A2998 RMK AO2 SLP153 T01780128 $


Station Type Date Time Source
KPTN Decoded METAR 2021/03/06 01:56 UTC NOAA

Patterson Memorial, LA, United States (KPTN) 29-43N 091-20W
Mar 05, 2021 - 08:56 PM EST / 2021.03.06 0156 UTC
Wind: Calm:0
Visibility: 10 mile(s):0
Sky conditions: overcast
Temperature: 64.0 F (17.8 C)
Dew Point: 55.0 F (12.8 C)
Relative Humidity: 72%
Pressure (altimeter): 29.98 in. Hg (1015 hPa)
ob: KPTN 060156Z AUTO 00000KT 10SM OVC048 18/13 A2998 RMK AO2 SLP153 T01780128
cycle: 2

Station Type Date Time Source
KPTN TAF UTC NOAA

Error!

Example: see airport list